Time;durP1;ratioP1;P1;durP2;ratioP2;P2;SDS_P1;SDS_P2;PMS_P1;PMS_P2;Temp;Humidity;BMP_temperature;BMP_pressure;BME280_temperature;BME280_humidity;BME280_pressure;Samples;Min_cycle;Max_cycle;Signal;HPM_P1;HPM_P2
2023/12/31 00:00:03;;;;;;;1.00;0.75;;;;;;;;;;10405824;28;20045;-73
2023/12/31 00:05:07;;;;;;;2.15;1.00;;;;;;;;;;10407682;28;20060;-73
2023/12/31 00:10:10;;;;;;;1.20;0.90;;;;;;;;;;10410397;28;20049;-73
2023/12/31 00:15:15;;;;;;;0.70;0.63;;;;;;;;;;10408810;28;20045;-73
2023/12/31 00:20:18;;;;;;;1.00;0.70;;;;;;;;;;10400758;28;20548;-73
2023/12/31 00:25:24;;;;;;;0.60;0.60;;;;;;;;;;10418131;28;20517;-73
2023/12/31 00:30:29;;;;;;;;;;;;;;;;;;10415445;28;20059;-73
2023/12/31 00:35:32;;;;;;;1.08;0.80;;;;;;;;;;10413142;28;20023;-73
2023/12/31 00:40:36;;;;;;;0.60;0.60;;;;;;;;;;10410494;28;20040;-73
2023/12/31 00:45:40;;;;;;;0.82;0.82;;;;;;;;;;10398379;28;20402;-73
2023/12/31 00:50:43;;;;;;;2.10;1.23;;;;;;;;;;10401503;28;20067;-73
2023/12/31 00:55:47;;;;;;;1.75;1.05;;;;;;;;;;10406911;28;20049;-73
2023/12/31 01:00:51;;;;;;;1.33;1.00;;;;;;;;;;10410395;28;20098;-73
2023/12/31 01:05:56;;;;;;;1.38;0.77;;;;;;;;;;10409425;28;20046;-73
2023/12/31 01:10:59;;;;;;;1.42;1.00;;;;;;;;;;10404264;28;20053;-73
2023/12/31 01:16:05;;;;;;;1.67;1.08;;;;;;;;;;10401863;28;20457;-73
2023/12/31 01:21:08;;;;;;;2.30;1.30;;;;;;;;;;10382685;28;20063;-73
2023/12/31 01:26:11;;;;;;;2.28;1.77;;;;;;;;;;10411205;28;20549;-73
2023/12/31 01:31:20;;;;;;;1.50;1.23;;;;;;;;;;10384663;28;20044;-73
2023/12/31 01:36:25;;;;;;;2.40;1.10;;;;;;;;;;10410597;28;20041;-73
2023/12/31 01:41:29;;;;;;;1.85;1.10;;;;;;;;;;10408987;28;20049;-73
2023/12/31 01:46:35;;;;;;;1.88;1.30;;;;;;;;;;10405312;28;20132;-73
2023/12/31 01:51:38;;;;;;;1.58;1.00;;;;;;;;;;10383774;28;20052;-73
2023/12/31 01:56:42;;;;;;;1.17;0.98;;;;;;;;;;10415265;28;20046;-73
2023/12/31 02:01:48;;;;;;;1.40;1.23;;;;;;;;;;10390257;28;20048;-73
2023/12/31 02:06:52;;;;;;;2.15;1.05;;;;;;;;;;10380282;28;20076;-73
2023/12/31 02:11:56;;;;;;;2.30;1.08;;;;;;;;;;10392050;28;20045;-73
2023/12/31 02:17:00;;;;;;;1.00;0.90;;;;;;;;;;10388089;28;20045;-73
2023/12/31 02:22:04;;;;;;;1.38;0.80;;;;;;;;;;10380116;28;20051;-73
2023/12/31 02:27:08;;;;;;;1.33;0.90;;;;;;;;;;10375888;28;20438;-73
2023/12/31 02:32:11;;;;;;;1.02;0.90;;;;;;;;;;10380341;28;20048;-73
2023/12/31 02:37:15;;;;;;;1.50;0.90;;;;;;;;;;10385095;28;20048;-73
2023/12/31 02:42:19;;;;;;;0.88;0.85;;;;;;;;;;10375227;28;20574;-73
2023/12/31 02:47:22;;;;;;;1.88;1.00;;;;;;;;;;10392713;28;20037;-73
2023/12/31 02:52:26;;;;;;;1.73;0.90;;;;;;;;;;10388485;28;20088;-73
2023/12/31 02:57:30;;;;;;;2.58;0.85;;;;;;;;;;10394814;28;20051;-73
2023/12/31 03:02:35;;;;;;;1.70;1.25;;;;;;;;;;10390852;28;20038;-73
2023/12/31 03:07:39;;;;;;;1.20;0.90;;;;;;;;;;10387602;28;20043;-73
2023/12/31 03:12:44;;;;;;;1.30;1.05;;;;;;;;;;10403500;28;20045;-73
2023/12/31 03:17:47;;;;;;;2.15;1.30;;;;;;;;;;10385043;22;20482;-74
2023/12/31 03:22:50;;;;;;;2.80;1.35;;;;;;;;;;10364083;28;20133;-74
2023/12/31 03:27:55;;;;;;;1.65;1.10;;;;;;;;;;10355584;28;20120;-74
2023/12/31 03:32:58;;;;;;;2.67;1.10;;;;;;;;;;10347580;28;20037;-74
2023/12/31 03:38:02;;;;;;;1.98;1.00;;;;;;;;;;10361087;28;20129;-74
2023/12/31 03:43:06;;;;;;;2.58;1.60;;;;;;;;;;10353203;28;20058;-74
2023/12/31 03:48:10;;;;;;;1.80;1.20;;;;;;;;;;10352267;28;20035;-74
2023/12/31 03:53:13;;;;;;;1.40;1.00;;;;;;;;;;10355106;28;20530;-74
2023/12/31 03:58:17;;;;;;;0.85;0.80;;;;;;;;;;10352489;28;20044;-74
2023/12/31 04:03:21;;;;;;;1.38;1.15;;;;;;;;;;10345060;28;20117;-74
2023/12/31 04:08:25;;;;;;;1.38;0.90;;;;;;;;;;10364788;28;20064;-74
2023/12/31 04:13:30;;;;;;;1.00;0.90;;;;;;;;;;10353974;28;20511;-74
2023/12/31 04:18:33;;;;;;;1.90;1.15;;;;;;;;;;10350707;28;20042;-74
2023/12/31 04:23:36;;;;;;;1.98;1.13;;;;;;;;;;10355599;28;20073;-74
2023/12/31 04:28:41;;;;;;;2.22;1.48;;;;;;;;;;10346483;28;20038;-74
2023/12/31 04:33:44;;;;;;;1.92;1.30;;;;;;;;;;10359932;28;20136;-74
2023/12/31 04:38:48;;;;;;;1.77;1.33;;;;;;;;;;10358503;28;20160;-74
2023/12/31 04:43:53;;;;;;;1.73;1.60;;;;;;;;;;10360222;28;20046;-74
2023/12/31 04:48:56;;;;;;;3.45;1.50;;;;;;;;;;10358774;28;20041;-74
2023/12/31 04:53:59;;;;;;;3.50;2.13;;;;;;;;;;10372578;28;20519;-74
2023/12/31 04:59:04;;;;;;;2.80;1.92;;;;;;;;;;10379296;28;20046;-74
2023/12/31 05:04:07;;;;;;;2.35;1.80;;;;;;;;;;10357328;28;20104;-74
2023/12/31 05:09:11;;;;;;;3.00;1.77;;;;;;;;;;10346263;28;20042;-74
2023/12/31 05:14:16;;;;;;;1.75;1.58;;;;;;;;;;10352987;28;20383;-74
2023/12/31 05:19:19;;;;;;;1.88;1.40;;;;;;;;;;10356954;28;20483;-74
2023/12/31 05:24:22;;;;;;;3.03;1.70;;;;;;;;;;10353586;28;20430;-74
2023/12/31 05:29:27;;;;;;;1.95;1.50;;;;;;;;;;10359218;28;20034;-74
2023/12/31 05:34:30;;;;;;;2.25;1.40;;;;;;;;;;10359902;28;20419;-74
2023/12/31 05:39:34;;;;;;;1.50;1.35;;;;;;;;;;10346042;28;20038;-74
2023/12/31 05:44:38;;;;;;;2.50;1.60;;;;;;;;;;10355299;28;20049;-74
2023/12/31 05:49:41;;;;;;;2.00;1.60;;;;;;;;;;10354832;28;20045;-74
2023/12/31 05:54:45;;;;;;;1.85;1.48;;;;;;;;;;10349538;28;20084;-74
2023/12/31 05:59:49;;;;;;;1.65;1.52;;;;;;;;;;10351940;28;20042;-74
2023/12/31 06:04:52;;;;;;;2.67;1.40;;;;;;;;;;10356427;28;20744;-74
2023/12/31 06:09:56;;;;;;;2.00;1.38;;;;;;;;;;10353672;28;20058;-74
2023/12/31 06:15:06;;;;;;;2.38;1.42;;;;;;;;;;10349429;28;20052;-74
2023/12/31 06:20:10;;;;;;;2.15;1.95;;;;;;;;;;10341378;28;20038;-74
2023/12/31 06:25:14;;;;;;;3.03;2.10;;;;;;;;;;10354374;28;20056;-74
2023/12/31 06:30:19;;;;;;;2.85;2.08;;;;;;;;;;10372194;28;20125;-74
2023/12/31 06:35:22;;;;;;;2.70;1.93;;;;;;;;;;10351276;28;20049;-74
2023/12/31 06:40:25;;;;;;;2.88;1.98;;;;;;;;;;10368049;28;20037;-74
2023/12/31 06:45:30;;;;;;;2.22;1.88;;;;;;;;;;10361224;28;20400;-74
2023/12/31 06:50:33;;;;;;;2.55;1.70;;;;;;;;;;10360701;28;20037;-74
2023/12/31 06:55:37;;;;;;;2.97;1.77;;;;;;;;;;10364042;28;20050;-74
2023/12/31 07:00:41;;;;;;;3.13;2.30;;;;;;;;;;10359580;28;20037;-74
2023/12/31 07:05:44;;;;;;;2.15;1.80;;;;;;;;;;10356700;28;20037;-74
2023/12/31 07:10:48;;;;;;;1.83;1.65;;;;;;;;;;10362199;28;20053;-74
2023/12/31 07:15:52;;;;;;;2.80;2.03;;;;;;;;;;10364692;28;20189;-74
2023/12/31 07:20:56;;;;;;;3.53;1.92;;;;;;;;;;10363545;28;20053;-74
2023/12/31 07:25:59;;;;;;;4.15;2.40;;;;;;;;;;10358631;28;20042;-74
2023/12/31 07:31:04;;;;;;;2.30;1.55;;;;;;;;;;10361838;28;20046;-74
2023/12/31 07:36:08;;;;;;;3.33;1.90;;;;;;;;;;10350695;28;20058;-74
2023/12/31 07:41:15;;;;;;;2.10;1.60;;;;;;;;;;10358267;28;20042;-74
2023/12/31 07:46:19;;;;;;;3.50;2.20;;;;;;;;;;10355510;28;20509;-74
2023/12/31 07:51:23;;;;;;;3.30;1.80;;;;;;;;;;10352919;28;20049;-74
2023/12/31 07:56:27;;;;;;;2.13;1.60;;;;;;;;;;10357729;28;20056;-74
2023/12/31 08:01:32;;;;;;;4.25;2.15;;;;;;;;;;10357121;28;20550;-74
2023/12/31 08:06:36;;;;;;;3.97;2.30;;;;;;;;;;10359536;28;20141;-74
2023/12/31 08:11:39;;;;;;;3.40;2.20;;;;;;;;;;10356258;28;20057;-74
2023/12/31 08:16:44;;;;;;;2.53;2.20;;;;;;;;;;10361205;28;20495;-74
2023/12/31 08:21:48;;;;;;;4.43;2.80;;;;;;;;;;10361698;28;20066;-74
2023/12/31 08:26:52;;;;;;;4.80;2.58;;;;;;;;;;10365214;28;20046;-74
2023/12/31 08:31:56;;;;;;;3.63;3.00;;;;;;;;;;10362966;28;20064;-74
2023/12/31 08:37:00;;;;;;;5.13;3.15;;;;;;;;;;10361667;28;20133;-74
2023/12/31 08:42:03;;;;;;;7.47;2.80;;;;;;;;;;10359858;28;20096;-74
2023/12/31 08:47:09;;;;;;;2.90;2.17;;;;;;;;;;10357544;28;20038;-74
2023/12/31 08:52:12;;;;;;;2.60;1.97;;;;;;;;;;10362436;28;20047;-74
2023/12/31 08:57:15;;;;;;;2.58;2.08;;;;;;;;;;10360213;28;20053;-74
2023/12/31 09:02:21;;;;;;;3.25;2.72;;;;;;;;;;10353254;28;20484;-74
2023/12/31 09:07:24;;;;;;;4.60;2.80;;;;;;;;;;10357443;28;20387;-74
2023/12/31 09:12:27;;;;;;;2.65;2.05;;;;;;;;;;10355508;28;20052;-74
2023/12/31 09:17:54;;;;;;;2.78;2.00;;;;;;;;;;10351360;28;20052;-74
2023/12/31 09:23:00;;;;;;;3.53;2.38;;;;;;;;;;10357133;28;20156;-74
2023/12/31 09:28:26;;;;;;;4.32;2.75;;;;;;;;;;10350048;28;20038;-74
2023/12/31 09:33:42;;;;;;;5.25;2.88;;;;;;;;;;10360537;28;20137;-74
2023/12/31 09:39:13;;;;;;;3.88;2.35;;;;;;;;;;10351474;28;20052;-74
2023/12/31 09:44:19;;;;;;;2.90;2.30;;;;;;;;;;10347978;28;20766;-74
2023/12/31 09:49:24;;;;;;;6.65;2.67;;;;;;;;;;10350414;28;20052;-74
2023/12/31 09:54:28;;;;;;;3.25;2.45;;;;;;;;;;10350589;28;20093;-74
2023/12/31 09:59:31;;;;;;;3.33;2.25;;;;;;;;;;10353523;28;20510;-74
2023/12/31 10:04:35;;;;;;;3.33;2.40;;;;;;;;;;10355176;28;20046;-74
2023/12/31 10:09:40;;;;;;;3.55;2.05;;;;;;;;;;10343683;28;20128;-74
2023/12/31 10:14:43;;;;;;;3.30;2.10;;;;;;;;;;10350576;28;20418;-74
2023/12/31 10:19:48;;;;;;;3.58;2.10;;;;;;;;;;10354183;28;20250;-74
2023/12/31 10:24:52;;;;;;;2.88;2.15;;;;;;;;;;10347936;28;20034;-74
2023/12/31 10:29:56;;;;;;;2.15;1.63;;;;;;;;;;10352192;28;20491;-74
2023/12/31 10:35:08;;;;;;;2.58;1.95;;;;;;;;;;10350652;28;20057;-74
2023/12/31 10:40:19;;;;;;;2.92;1.98;;;;;;;;;;10344781;28;20042;-74
2023/12/31 10:45:23;;;;;;;1.75;1.33;;;;;;;;;;10353672;28;20591;-74
2023/12/31 10:50:29;;;;;;;2.90;2.08;;;;;;;;;;10353780;28;20519;-74
2023/12/31 10:55:34;;;;;;;1.50;1.40;;;;;;;;;;10350933;28;20426;-74
2023/12/31 11:00:37;;;;;;;1.75;1.48;;;;;;;;;;10348318;28;20538;-75
2023/12/31 11:05:44;;;;;;;3.22;1.30;;;;;;;;;;10351415;28;20129;-74
2023/12/31 11:10:47;;;;;;;1.30;1.05;;;;;;;;;;10354455;28;20081;-74
2023/12/31 11:15:53;;;;;;;3.05;1.10;;;;;;;;;;10362704;28;20489;-74
2023/12/31 11:21:13;;;;;;;1.75;1.08;;;;;;;;;;10338789;28;20038;-74
2023/12/31 11:26:18;;;;;;;1.58;0.82;;;;;;;;;;10343080;28;20050;-74
2023/12/31 11:31:22;;;;;;;1.05;0.90;;;;;;;;;;10346848;28;20045;-74
2023/12/31 11:36:27;;;;;;;1.27;0.80;;;;;;;;;;10352102;28;20049;-75
2023/12/31 11:41:33;;;;;;;3.35;0.90;;;;;;;;;;10355066;28;20510;-75
2023/12/31 11:46:37;;;;;;;;;;;;;;;;;;10358760;28;20108;-75
2023/12/31 11:51:53;;;;;;;1.23;0.63;;;;;;;;;;10351322;28;19964;-75
2023/12/31 11:56:56;;;;;;;0.68;0.47;;;;;;;;;;10352692;28;20043;-75
2023/12/31 12:02:01;;;;;;;1.40;0.52;;;;;;;;;;10356779;28;20042;-75
2023/12/31 12:07:06;;;;;;;0.45;0.40;;;;;;;;;;10353108;28;20049;-74
2023/12/31 12:12:10;;;;;;;1.73;0.60;;;;;;;;;;10353171;28;20050;-75
2023/12/31 12:17:13;;;;;;;0.85;0.43;;;;;;;;;;10354837;28;20535;-75
2023/12/31 12:22:18;;;;;;;0.77;0.63;;;;;;;;;;10354195;28;20136;-74
2023/12/31 12:27:21;;;;;;;1.27;0.50;;;;;;;;;;10355864;28;20052;-74
2023/12/31 12:32:26;;;;;;;2.15;0.50;;;;;;;;;;10350871;28;20070;-74
2023/12/31 12:37:32;;;;;;;0.60;0.50;;;;;;;;;;10350728;28;20057;-74
2023/12/31 12:42:36;;;;;;;1.38;0.50;;;;;;;;;;10349683;28;20048;-74
2023/12/31 12:47:42;;;;;;;3.15;1.65;;;;;;;;;;10355310;28;20050;-74
2023/12/31 12:52:47;;;;;;;4.38;2.22;;;;;;;;;;10353750;28;20045;-74
2023/12/31 12:57:50;;;;;;;2.80;1.60;;;;;;;;;;10356703;28;20125;-74
2023/12/31 13:02:54;;;;;;;1.92;0.85;;;;;;;;;;10353709;28;20128;-74
2023/12/31 13:07:59;;;;;;;0.95;0.60;;;;;;;;;;10357588;28;20160;-74
2023/12/31 13:13:04;;;;;;;1.17;0.80;;;;;;;;;;10371263;28;20044;-74
2023/12/31 13:18:07;;;;;;;2.75;1.27;;;;;;;;;;10350842;28;20037;-74
2023/12/31 13:23:13;;;;;;;2.88;1.42;;;;;;;;;;10354693;28;20038;-75
2023/12/31 13:28:17;;;;;;;1.85;0.82;;;;;;;;;;10352173;28;20138;-75
2023/12/31 13:33:21;;;;;;;1.35;0.50;;;;;;;;;;10351882;28;20048;-75
2023/12/31 13:38:26;;;;;;;0.77;0.45;;;;;;;;;;10357613;28;20072;-75
2023/12/31 13:43:29;;;;;;;1.05;0.52;;;;;;;;;;10354745;28;20246;-75
2023/12/31 13:48:32;;;;;;;1.63;0.68;;;;;;;;;;10359035;28;20545;-75
2023/12/31 13:53:37;;;;;;;2.22;0.93;;;;;;;;;;10352798;28;20038;-74
2023/12/31 13:58:41;;;;;;;2.45;0.77;;;;;;;;;;10353601;28;20501;-75
2023/12/31 14:03:44;;;;;;;3.30;1.08;;;;;;;;;;10350399;28;20149;-75
2023/12/31 14:08:48;;;;;;;2.38;0.73;;;;;;;;;;10354871;28;20100;-75
2023/12/31 14:13:52;;;;;;;2.63;1.10;;;;;;;;;;10352581;28;20045;-75
2023/12/31 14:18:55;;;;;;;1.92;0.77;;;;;;;;;;10352857;28;20137;-74
2023/12/31 14:23:59;;;;;;;2.75;0.85;;;;;;;;;;10353914;28;20061;-75
2023/12/31 14:29:03;;;;;;;1.42;0.80;;;;;;;;;;10356081;28;20044;-75
2023/12/31 14:34:08;;;;;;;1.70;0.68;;;;;;;;;;10342551;28;20113;-75
2023/12/31 14:39:15;;;;;;;4.65;0.90;;;;;;;;;;10353873;28;20049;-75
2023/12/31 14:44:19;;;;;;;3.10;1.30;;;;;;;;;;10356877;28;20100;-75
2023/12/31 14:49:22;;;;;;;1.20;0.65;;;;;;;;;;10358007;28;20041;-75
2023/12/31 14:54:27;;;;;;;2.17;0.80;;;;;;;;;;10366163;28;20065;-75
2023/12/31 14:59:30;;;;;;;2.53;0.65;;;;;;;;;;10351774;28;20053;-75
2023/12/31 15:04:33;;;;;;;1.15;0.80;;;;;;;;;;10362566;28;20041;-75
2023/12/31 15:09:38;;;;;;;2.17;0.90;;;;;;;;;;10359911;28;20049;-75
2023/12/31 15:14:42;;;;;;;3.85;0.90;;;;;;;;;;10361928;28;20052;-75
2023/12/31 15:19:45;;;;;;;3.55;0.75;;;;;;;;;;10360826;28;20535;-75
2023/12/31 15:24:51;;;;;;;3.47;0.82;;;;;;;;;;10357807;28;20565;-75
2023/12/31 15:29:54;;;;;;;2.53;0.90;;;;;;;;;;10362826;28;20375;-75
2023/12/31 15:34:57;;;;;;;3.08;0.85;;;;;;;;;;10364157;28;20041;-75
2023/12/31 15:40:02;;;;;;;2.20;0.85;;;;;;;;;;10358853;28;20499;-75
2023/12/31 15:45:06;;;;;;;5.20;1.35;;;;;;;;;;10356501;28;20066;-75
2023/12/31 15:50:10;;;;;;;2.85;0.90;;;;;;;;;;10360691;28;20038;-74
2023/12/31 15:55:14;;;;;;;4.55;1.20;;;;;;;;;;10356358;28;20117;-75
2023/12/31 16:00:18;;;;;;;2.88;1.30;;;;;;;;;;10364295;28;20052;-75
2023/12/31 16:05:22;;;;;;;5.28;1.17;;;;;;;;;;10360454;28;20042;-74
2023/12/31 16:10:26;;;;;;;3.47;1.00;;;;;;;;;;10363493;28;20073;-75
2023/12/31 16:15:30;;;;;;;3.45;1.25;;;;;;;;;;10359668;28;20648;-75
2023/12/31 16:20:33;;;;;;;2.40;0.98;;;;;;;;;;10361306;28;20041;-74
2023/12/31 16:25:39;;;;;;;3.40;1.35;;;;;;;;;;10359014;28;20056;-75
2023/12/31 16:30:42;;;;;;;2.10;0.90;;;;;;;;;;10363127;28;20042;-75
2023/12/31 16:35:46;;;;;;;3.15;1.38;;;;;;;;;;10359654;28;20452;-75
2023/12/31 16:40:50;;;;;;;4.28;1.73;;;;;;;;;;10358343;28;20537;-74
2023/12/31 16:45:54;;;;;;;3.72;1.58;;;;;;;;;;10347270;28;20534;-75
2023/12/31 16:50:57;;;;;;;8.00;1.27;;;;;;;;;;10354442;28;20124;-74
2023/12/31 16:56:01;;;;;;;3.28;1.08;;;;;;;;;;10355504;28;20255;-74
2023/12/31 17:01:05;;;;;;;2.70;1.17;;;;;;;;;;10370353;28;20515;-75
2023/12/31 17:06:08;;;;;;;4.07;1.08;;;;;;;;;;10360768;28;20073;-75
2023/12/31 17:11:13;;;;;;;5.10;1.20;;;;;;;;;;10360150;28;20045;-75
2023/12/31 17:16:16;;;;;;;3.22;1.00;;;;;;;;;;10361063;28;20056;-74
2023/12/31 17:21:20;;;;;;;3.75;1.20;;;;;;;;;;10358314;28;20056;-75
2023/12/31 17:26:24;;;;;;;3.75;1.25;;;;;;;;;;10357265;28;20052;-74
2023/12/31 17:31:28;;;;;;;3.22;1.00;;;;;;;;;;10371764;28;20534;-74
2023/12/31 17:36:32;;;;;;;3.78;1.27;;;;;;;;;;10355912;28;20567;-74
2023/12/31 17:41:36;;;;;;;4.20;1.35;;;;;;;;;;10354926;28;20138;-74
2023/12/31 17:46:39;;;;;;;4.53;1.58;;;;;;;;;;10353391;28;20038;-74
2023/12/31 17:51:43;;;;;;;3.50;1.30;;;;;;;;;;10353885;28;20049;-74
2023/12/31 17:56:47;;;;;;;1.63;0.90;;;;;;;;;;10350223;28;20034;-74
2023/12/31 18:01:51;;;;;;;3.92;1.45;;;;;;;;;;10350451;28;20038;-74
2023/12/31 18:06:54;;;;;;;3.17;1.30;;;;;;;;;;10338197;28;20046;-74
2023/12/31 18:11:58;;;;;;;2.75;1.30;;;;;;;;;;10345443;28;20041;-74
2023/12/31 18:17:02;;;;;;;5.80;1.33;;;;;;;;;;10351393;28;20048;-74
2023/12/31 18:22:05;;;;;;;3.20;1.02;;;;;;;;;;10346843;28;20160;-74
2023/12/31 18:27:10;;;;;;;3.63;1.27;;;;;;;;;;10347450;28;20515;-74
2023/12/31 18:32:15;;;;;;;2.00;1.00;;;;;;;;;;10356887;28;20057;-74
2023/12/31 18:37:18;;;;;;;2.88;1.10;;;;;;;;;;10366900;28;20578;-74
2023/12/31 18:42:23;;;;;;;4.88;1.08;;;;;;;;;;10360154;28;20423;-74
2023/12/31 18:47:26;;;;;;;3.40;1.23;;;;;;;;;;10368327;28;20052;-74
2023/12/31 18:52:29;;;;;;;1.83;0.90;;;;;;;;;;10363289;28;20042;-74
2023/12/31 18:57:34;;;;;;;1.42;0.80;;;;;;;;;;10364219;28;20101;-74
2023/12/31 19:02:37;;;;;;;1.95;0.80;;;;;;;;;;10379649;28;20428;-74
2023/12/31 19:07:41;;;;;;;4.13;1.30;;;;;;;;;;10364353;28;20125;-74
2023/12/31 19:12:47;;;;;;;2.78;0.93;;;;;;;;;;10360731;28;20169;-74
2023/12/31 19:17:50;;;;;;;3.25;1.33;;;;;;;;;;10361915;28;20054;-74
2023/12/31 19:22:53;;;;;;;3.25;1.00;;;;;;;;;;10357868;28;20054;-74
2023/12/31 19:27:58;;;;;;;4.13;1.40;;;;;;;;;;10358045;28;20053;-74
2023/12/31 19:33:01;;;;;;;2.17;1.10;;;;;;;;;;10357871;28;20045;-74
2023/12/31 19:38:05;;;;;;;3.67;0.93;;;;;;;;;;10375145;28;20369;-75
2023/12/31 19:43:10;;;;;;;2.70;0.82;;;;;;;;;;10361529;28;20092;-74
2023/12/31 19:48:16;;;;;;;2.35;0.82;;;;;;;;;;10363409;28;20049;-74
2023/12/31 19:53:20;;;;;;;1.90;0.70;;;;;;;;;;10363923;28;20483;-74
2023/12/31 19:58:26;;;;;;;1.27;0.60;;;;;;;;;;10362201;28;20042;-74
2023/12/31 20:03:29;;;;;;;1.42;0.50;;;;;;;;;;10357466;28;20076;-74
2023/12/31 20:08:33;;;;;;;1.30;0.80;;;;;;;;;;10355620;28;20069;-74
2023/12/31 20:13:38;;;;;;;1.58;0.70;;;;;;;;;;10355822;28;20056;-74
2023/12/31 20:18:42;;;;;;;3.75;0.73;;;;;;;;;;10349745;28;20050;-74
2023/12/31 20:23:46;;;;;;;2.20;0.70;;;;;;;;;;10356867;28;20061;-74
2023/12/31 20:28:51;;;;;;;2.33;0.90;;;;;;;;;;10362643;28;20045;-74
2023/12/31 20:33:54;;;;;;;3.35;0.93;;;;;;;;;;10358313;28;20034;-74
2023/12/31 20:38:57;;;;;;;2.22;0.90;;;;;;;;;;10351246;28;20041;-74
2023/12/31 20:44:02;;;;;;;2.17;0.93;;;;;;;;;;10357505;28;20453;-74
2023/12/31 20:49:06;;;;;;;2.17;0.93;;;;;;;;;;10359076;28;20060;-74
2023/12/31 20:54:11;;;;;;;2.17;1.30;;;;;;;;;;10360458;28;20124;-74
2023/12/31 20:59:15;;;;;;;2.72;0.98;;;;;;;;;;10354475;28;20038;-74
2023/12/31 21:04:18;;;;;;;2.78;1.23;;;;;;;;;;10356479;28;20042;-74
2023/12/31 21:09:22;;;;;;;2.05;1.23;;;;;;;;;;10367784;28;20038;-74
2023/12/31 21:14:26;;;;;;;2.38;1.00;;;;;;;;;;10353319;28;20042;-74
2023/12/31 21:19:30;;;;;;;1.88;0.93;;;;;;;;;;10349804;28;20049;-74
2023/12/31 21:24:33;;;;;;;2.15;0.80;;;;;;;;;;10355790;28;20521;-74
2023/12/31 21:29:38;;;;;;;3.28;1.00;;;;;;;;;;10388512;23;20045;-76
2023/12/31 21:34:41;;;;;;;3.35;0.68;;;;;;;;;;10405604;28;20041;-73
2023/12/31 21:39:46;;;;;;;0.50;0.50;;;;;;;;;;10401493;28;20045;-73
2023/12/31 21:44:51;;;;;;;2.88;0.80;;;;;;;;;;10381685;28;20440;-74
2023/12/31 21:49:54;;;;;;;1.08;0.70;;;;;;;;;;10400114;28;20711;-73
2023/12/31 21:54:59;;;;;;;2.75;0.90;;;;;;;;;;10392980;28;20037;-73
2023/12/31 22:00:06;;;;;;;3.08;0.95;;;;;;;;;;10396106;28;20493;-73
2023/12/31 22:05:09;;;;;;;3.42;1.33;;;;;;;;;;10389689;28;20045;-73
2023/12/31 22:10:12;;;;;;;1.42;0.60;;;;;;;;;;10394710;28;20045;-73
2023/12/31 22:15:17;;;;;;;2.92;1.10;;;;;;;;;;10405348;28;20041;-73
2023/12/31 22:20:20;;;;;;;3.83;1.20;;;;;;;;;;10373156;28;20037;-73
2023/12/31 22:25:23;;;;;;;0.75;0.60;;;;;;;;;;10396383;28;20439;-73
2023/12/31 22:30:28;;;;;;;1.80;0.90;;;;;;;;;;10399473;28;20057;-73
2023/12/31 22:35:31;;;;;;;2.50;0.93;;;;;;;;;;10397758;28;20048;-73
2023/12/31 22:40:35;;;;;;;2.25;0.98;;;;;;;;;;10397741;28;20050;-73
2023/12/31 22:45:40;;;;;;;2.10;1.08;;;;;;;;;;10394642;28;20522;-73
2023/12/31 22:50:43;;;;;;;2.30;1.00;;;;;;;;;;10398888;28;20045;-73
2023/12/31 22:55:46;;;;;;;3.75;1.10;;;;;;;;;;10393890;28;20079;-73
2023/12/31 23:00:51;;;;;;;2.05;0.80;;;;;;;;;;10389191;28;20137;-73
2023/12/31 23:05:57;;;;;;;3.95;2.53;;;;;;;;;;10395626;28;20060;-73
2023/12/31 23:11:00;;;;;;;6.57;3.47;;;;;;;;;;10397263;28;20119;-73
2023/12/31 23:16:06;;;;;;;11.10;6.03;;;;;;;;;;10394042;28;20919;-73
2023/12/31 23:21:10;;;;;;;4.95;2.92;;;;;;;;;;10397158;28;20045;-74
2023/12/31 23:26:14;;;;;;;6.50;3.63;;;;;;;;;;10402819;28;20045;-73
2023/12/31 23:31:19;;;;;;;6.57;2.38;;;;;;;;;;10404419;28;20050;-73
2023/12/31 23:36:22;;;;;;;6.22;2.00;;;;;;;;;;10403421;28;20517;-74
2023/12/31 23:41:25;;;;;;;2.50;1.60;;;;;;;;;;10401248;28;20057;-73
2023/12/31 23:46:33;;;;;;;3.20;1.70;;;;;;;;;;10398995;28;20505;-74
2023/12/31 23:51:36;;;;;;;2.10;1.27;;;;;;;;;;10404872;28;20051;-73
2023/12/31 23:56:39;;;;;;;4.25;2.10;;;;;;;;;;10402106;28;20045;-73
